Time;durP1;ratioP1;P1;durP2;ratioP2;P2;SDS_P1;SDS_P2;PMS_P1;PMS_P2;Temp;Humidity;BMP_temperature;BMP_pressure;BME280_temperature;BME280_humidity;BME280_pressure;Samples;Min_cycle;Max_cycle;Signal;HPM_P1;HPM_P2
2022/10/07 00:00:23;;;;;;;16.88;3.47;;;10.40;99.90;;;;;;5032722;28;20025;-77
2022/10/07 00:02:49;;;;;;;10.23;3.65;;;10.40;99.90;;;;;;5032673;28;20040;-81
2022/10/07 00:05:14;;;;;;;14.25;3.50;;;10.40;99.90;;;;;;5033480;28;20151;-77
2022/10/07 00:07:40;;;;;;;11.05;3.58;;;10.40;99.90;;;;;;5030252;28;20032;-78
2022/10/07 00:10:06;;;;;;;14.13;3.65;;;10.40;99.90;;;;;;5032133;28;20084;-77
2022/10/07 00:12:32;;;;;;;10.10;3.17;;;10.40;99.90;;;;;;5033021;28;20029;-78
2022/10/07 00:14:58;;;;;;;11.18;4.15;;;10.40;99.90;;;;;;5031393;28;20037;-77
2022/10/07 00:17:24;;;;;;;9.68;3.50;;;10.40;99.90;;;;;;5032306;28;20032;-78
2022/10/07 00:19:49;;;;;;;10.07;3.70;;;10.20;99.90;;;;;;5032333;28;20089;-78
2022/10/07 00:22:15;;;;;;;9.68;3.67;;;10.30;99.90;;;;;;5031954;28;20046;-79
2022/10/07 00:24:41;;;;;;;7.97;3.58;;;10.20;99.90;;;;;;5031138;28;20017;-80
2022/10/07 00:27:06;;;;;;;12.73;3.75;;;10.20;99.90;;;;;;5031527;28;20018;-78
2022/10/07 00:29:32;;;;;;;10.48;3.78;;;10.10;99.90;;;;;;5032204;28;20061;-80
2022/10/07 00:31:57;;;;;;;11.52;4.13;;;10.10;99.90;;;;;;5032126;28;20026;-79
2022/10/07 00:34:23;;;;;;;10.30;3.95;;;10.10;99.90;;;;;;5031757;28;20074;-80
2022/10/07 00:36:52;;;;;;;7.03;3.95;;;10.00;99.90;;;;;;5038833;28;20024;-79
2022/10/07 00:39:17;;;;;;;25.67;4.15;;;9.90;99.90;;;;;;5031940;28;20018;-79
2022/10/07 00:41:49;;;;;;;8.23;3.90;;;9.90;99.90;;;;;;5032084;28;20098;-77
2022/10/07 00:44:30;;;;;;;14.02;3.95;;;9.90;99.90;;;;;;5031715;28;20064;-78
2022/10/07 00:47:09;;;;;;;14.20;4.53;;;9.90;99.90;;;;;;5031147;28;20713;-78
2022/10/07 00:49:53;;;;;;;6.03;3.72;;;9.80;99.90;;;;;;5032364;28;20049;-79
2022/10/07 00:52:23;;;;;;;15.57;4.40;;;9.80;99.90;;;;;;5045804;28;20026;-77
2022/10/07 00:54:52;;;;;;;11.68;4.90;;;9.80;99.90;;;;;;5032086;28;20038;-78
2022/10/07 00:57:22;;;;;;;9.20;4.28;;;9.80;99.90;;;;;;5032017;28;20077;-77
2022/10/07 00:59:48;;;;;;;8.02;4.53;;;9.80;99.90;;;;;;5031583;28;20112;-78
2022/10/07 01:02:14;;;;;;;12.50;4.47;;;9.80;99.90;;;;;;5031611;28;20059;-79
2022/10/07 01:04:41;;;;;;;12.52;4.45;;;9.70;99.90;;;;;;5032224;28;20025;-78
2022/10/07 01:07:07;;;;;;;9.25;4.68;;;9.70;99.90;;;;;;5030341;28;21407;-78
2022/10/07 01:09:33;;;;;;;12.27;4.68;;;9.70;99.90;;;;;;5032311;28;20049;-77
2022/10/07 01:12:13;;;;;;;11.32;4.82;;;9.60;99.90;;;;;;5030959;28;20366;-77
2022/10/07 01:14:53;;;;;;;12.60;4.85;;;9.60;99.90;;;;;;5031566;28;20033;-79
2022/10/07 01:17:22;;;;;;;15.88;5.10;;;9.60;99.90;;;;;;5030907;28;20033;-76
2022/10/07 01:20:01;;;;;;;9.38;4.85;;;9.50;99.90;;;;;;5031521;28;20037;-79
2022/10/07 01:22:38;;;;;;;9.98;5.35;;;9.40;99.90;;;;;;5031220;28;20025;-77
2022/10/07 01:25:50;;;;;;;19.65;4.80;;;9.40;99.90;;;;;;5038714;28;20029;-79
2022/10/07 01:28:30;;;;;;;13.55;5.70;;;9.40;99.90;;;;;;5030499;28;20026;-78
2022/10/07 01:30:59;;;;;;;10.63;5.55;;;9.30;99.90;;;;;;5032307;28;20041;-78
2022/10/07 01:33:29;;;;;;;12.25;4.45;;;9.40;99.90;;;;;;5030057;28;20093;-78
2022/10/07 01:35:59;;;;;;;9.93;4.93;;;9.40;99.90;;;;;;5029641;28;20049;-77
2022/10/07 01:38:25;;;;;;;12.90;5.63;;;9.40;99.90;;;;;;5030132;28;20017;-77
2022/10/07 01:41:05;;;;;;;11.40;5.32;;;9.40;99.90;;;;;;5031278;28;20386;-78
2022/10/07 01:43:32;;;;;;;15.27;5.40;;;9.40;99.90;;;;;;5031707;28;20522;-77
2022/10/07 01:45:58;;;;;;;11.75;5.60;;;9.30;99.90;;;;;;5031004;28;20101;-78
2022/10/07 01:48:24;;;;;;;15.07;6.13;;;9.30;99.90;;;;;;5030783;28;20057;-80
2022/10/07 01:50:52;;;;;;;13.13;5.50;;;9.30;99.90;;;;;;5030693;28;20037;-79
2022/10/07 01:53:31;;;;;;;16.05;6.00;;;9.30;99.90;;;;;;5031518;28;20025;-77
2022/10/07 01:56:28;;;;;;;20.13;6.18;;;9.20;99.90;;;;;;5031015;28;20122;-77
2022/10/07 01:59:18;;;;;;;12.93;5.53;;;9.20;99.90;;;;;;5035518;28;20029;-79
2022/10/07 02:02:21;;;;;;;10.77;5.10;;;9.20;99.90;;;;;;5034294;28;20025;-80
2022/10/07 02:05:13;;;;;;;11.63;5.95;;;9.30;99.90;;;;;;5035017;28;20022;-77
2022/10/07 02:07:42;;;;;;;12.05;6.03;;;9.30;99.90;;;;;;5032912;28;20036;-77
2022/10/07 02:10:20;;;;;;;21.17;6.53;;;9.30;99.90;;;;;;5034560;28;20476;-77
2022/10/07 02:12:56;;;;;;;18.88;5.30;;;9.30;99.90;;;;;;5034954;28;20076;-79
2022/10/07 02:15:43;;;;;;;9.90;5.20;;;9.20;99.90;;;;;;5034830;28;20110;-77
2022/10/07 02:18:14;;;;;;;15.80;5.85;;;9.20;99.90;;;;;;5034297;28;20022;-76
2022/10/07 02:20:42;;;;;;;15.80;5.70;;;9.20;99.90;;;;;;5034422;28;20112;-77
2022/10/07 02:23:10;;;;;;;19.25;6.03;;;9.10;99.90;;;;;;5034015;28;20033;-78
2022/10/07 02:25:41;;;;;;;14.65;5.65;;;9.10;99.90;;;;;;5033050;28;20093;-77
2022/10/07 02:28:09;;;;;;;14.23;5.40;;;9.10;99.90;;;;;;5034612;28;20117;-78
2022/10/07 02:30:36;;;;;;;12.60;5.50;;;9.10;99.90;;;;;;5034442;28;20026;-80
2022/10/07 02:33:05;;;;;;;16.30;6.40;;;9.10;99.90;;;;;;5034610;28;20107;-77
2022/10/07 02:35:54;;;;;;;17.15;5.40;;;9.10;99.90;;;;;;5033801;28;20073;-77
2022/10/07 02:38:21;;;;;;;14.93;5.40;;;9.00;99.90;;;;;;5034657;28;20030;-77
2022/10/07 02:41:08;;;;;;;14.32;5.43;;;9.00;99.90;;;;;;5033897;28;20018;-79
2022/10/07 02:43:43;;;;;;;13.73;5.90;;;9.00;99.90;;;;;;5034718;28;20030;-77
2022/10/07 02:46:17;;;;;;;19.60;5.57;;;8.90;99.90;;;;;;5041061;28;20029;-75
2022/10/07 02:48:50;;;;;;;10.35;4.82;;;8.90;99.90;;;;;;5033637;28;20045;-77
2022/10/07 02:51:19;;;;;;;15.65;5.18;;;8.90;99.90;;;;;;5023657;28;20085;-77
2022/10/07 02:53:48;;;;;;;23.05;5.65;;;8.90;99.90;;;;;;5033422;28;20036;-78
2022/10/07 02:56:16;;;;;;;9.07;4.93;;;8.90;99.90;;;;;;5033483;28;20018;-77
2022/10/07 02:58:45;;;;;;;9.95;5.18;;;8.80;99.90;;;;;;5031324;28;20036;-76
2022/10/07 03:01:16;;;;;;;15.80;5.32;;;8.80;99.90;;;;;;5032786;28;20052;-77
2022/10/07 03:03:43;;;;;;;12.30;4.45;;;8.80;99.90;;;;;;5034220;28;20093;-77
2022/10/07 03:06:16;;;;;;;17.58;4.68;;;8.80;99.90;;;;;;5033652;28;20018;-78
2022/10/07 03:08:43;;;;;;;13.25;4.80;;;8.80;99.90;;;;;;5030736;28;20037;-77
2022/10/07 03:11:09;;;;;;;10.18;4.25;;;8.90;99.90;;;;;;5034455;28;20026;-77
2022/10/07 03:13:34;;;;;;;10.27;4.00;;;8.90;99.90;;;;;;5033449;28;20033;-77
2022/10/07 03:16:04;;;;;;;7.97;4.43;;;8.80;99.90;;;;;;5033514;28;20038;-79
2022/10/07 03:18:29;;;;;;;9.05;4.03;;;8.90;99.90;;;;;;5038811;28;20042;-78
2022/10/07 03:20:58;;;;;;;7.78;3.88;;;8.80;99.90;;;;;;5032357;28;20053;-78
2022/10/07 03:23:27;;;;;;;10.82;4.05;;;8.80;99.90;;;;;;5033213;28;20010;-79
2022/10/07 03:25:54;;;;;;;11.75;4.55;;;8.80;99.90;;;;;;5033086;28;20064;-78
2022/10/07 03:28:22;;;;;;;18.50;3.67;;;8.80;99.90;;;;;;5031731;28;20029;-79
2022/10/07 03:30:48;;;;;;;11.32;3.13;;;8.80;99.90;;;;;;5034526;28;20022;-77
2022/10/07 03:33:15;;;;;;;6.43;3.15;;;8.80;99.90;;;;;;5032636;28;20029;-76
2022/10/07 03:35:41;;;;;;;12.02;3.63;;;8.70;99.90;;;;;;5032883;28;20084;-78
2022/10/07 03:38:07;;;;;;;11.13;3.80;;;8.70;99.90;;;;;;5033678;28;20085;-78
2022/10/07 03:40:36;;;;;;;9.00;3.28;;;8.70;99.90;;;;;;5032855;28;20018;-77
2022/10/07 03:43:03;;;;;;;6.95;3.33;;;8.70;99.90;;;;;;5033562;28;20021;-77
2022/10/07 03:45:29;;;;;;;9.57;3.30;;;8.70;99.90;;;;;;5031954;28;20033;-80
2022/10/07 03:47:58;;;;;;;11.43;2.83;;;8.70;99.90;;;;;;5030520;28;20149;-79
2022/10/07 03:50:25;;;;;;;7.40;3.30;;;8.60;99.90;;;;;;5031285;28;20026;-80
2022/10/07 03:52:51;;;;;;;7.07;3.33;;;8.70;99.90;;;;;;5032688;28;20394;-78
2022/10/07 03:55:17;;;;;;;14.55;3.97;;;8.60;99.90;;;;;;5032677;28;20039;-78
2022/10/07 03:57:48;;;;;;;13.80;3.55;;;8.60;99.90;;;;;;5032863;28;20108;-79
2022/10/07 04:00:14;;;;;;;8.82;3.10;;;8.60;99.90;;;;;;5032641;28;20553;-79
2022/10/07 04:02:40;;;;;;;5.30;2.78;;;8.60;99.90;;;;;;5032632;28;20128;-78
2022/10/07 04:05:06;;;;;;;11.23;2.95;;;8.50;99.90;;;;;;5031099;28;20111;-80
2022/10/07 04:07:32;;;;;;;8.75;3.47;;;8.60;99.90;;;;;;5030959;28;20090;-79
2022/10/07 04:09:58;;;;;;;8.07;3.20;;;8.50;99.90;;;;;;5031061;28;20033;-80
2022/10/07 04:12:23;;;;;;;7.22;3.15;;;8.50;99.90;;;;;;5031377;28;20068;-79
2022/10/07 04:14:49;;;;;;;8.82;2.88;;;8.50;99.90;;;;;;5031871;28;20035;-80
2022/10/07 04:17:18;;;;;;;11.88;2.67;;;8.60;99.90;;;;;;5038346;28;20041;-77
2022/10/07 04:19:44;;;;;;;10.27;3.42;;;8.50;99.90;;;;;;5031911;28;20061;-79
2022/10/07 04:22:10;;;;;;;11.55;3.60;;;8.50;99.90;;;;;;5032593;28;20099;-78
2022/10/07 04:24:36;;;;;;;8.27;2.63;;;8.50;99.90;;;;;;5032745;28;20022;-81
2022/10/07 04:27:05;;;;;;;10.70;3.42;;;8.50;99.90;;;;;;5045976;28;20030;-78
2022/10/07 04:29:31;;;;;;;10.77;2.88;;;8.50;99.90;;;;;;5045650;28;20025;-81
2022/10/07 04:31:57;;;;;;;10.27;3.10;;;8.60;99.90;;;;;;5032721;28;20022;-78
2022/10/07 04:34:24;;;;;;;9.88;2.63;;;8.50;99.90;;;;;;5034742;28;20036;-78
2022/10/07 04:36:53;;;;;;;11.48;3.75;;;8.40;99.90;;;;;;5032519;28;20058;-81
2022/10/07 04:39:19;;;;;;;10.15;3.47;;;8.40;99.90;;;;;;5031650;28;20032;-77
2022/10/07 04:41:44;;;;;;;10.82;3.00;;;8.40;99.90;;;;;;5030707;28;20022;-78
2022/10/07 04:44:10;;;;;;;10.82;3.45;;;8.40;99.90;;;;;;5031767;28;20068;-78
2022/10/07 04:46:36;;;;;;;13.20;3.17;;;8.40;99.90;;;;;;5032308;28;20032;-80
2022/10/07 04:49:02;;;;;;;10.40;3.15;;;8.30;99.90;;;;;;5031648;28;20045;-78
2022/10/07 04:51:30;;;;;;;7.80;3.08;;;8.40;99.90;;;;;;5030497;28;20796;-78
2022/10/07 04:53:55;;;;;;;8.85;3.08;;;8.30;99.90;;;;;;5031585;28;20048;-79
2022/10/07 04:56:22;;;;;;;14.52;3.67;;;8.20;99.90;;;;;;5030111;28;20502;-78
2022/10/07 04:58:47;;;;;;;14.13;3.13;;;8.20;99.90;;;;;;5031716;28;20014;-79
2022/10/07 05:01:13;;;;;;;9.68;2.60;;;8.20;99.90;;;;;;5031618;28;20032;-78
2022/10/07 05:03:38;;;;;;;8.57;4.00;;;8.20;99.90;;;;;;5045888;28;20094;-77
2022/10/07 05:06:06;;;;;;;16.90;3.78;;;8.10;99.90;;;;;;5030174;28;20030;-77
2022/10/07 05:08:32;;;;;;;13.05;3.95;;;8.20;99.90;;;;;;5032006;28;20026;-79
2022/10/07 05:10:59;;;;;;;17.67;3.58;;;8.20;99.90;;;;;;5031717;28;20025;-79
2022/10/07 05:13:25;;;;;;;12.20;3.75;;;8.20;99.90;;;;;;5029554;28;20025;-78
2022/10/07 05:15:55;;;;;;;10.98;3.95;;;8.20;99.90;;;;;;5031648;28;20049;-76
2022/10/07 05:18:22;;;;;;;18.70;4.38;;;8.10;99.90;;;;;;5030914;28;20705;-78
2022/10/07 05:20:49;;;;;;;14.77;3.45;;;8.10;99.90;;;;;;5030421;28;20077;-77
2022/10/07 05:23:16;;;;;;;13.63;3.78;;;8.10;99.90;;;;;;5030577;28;20034;-77
2022/10/07 05:25:43;;;;;;;12.90;3.78;;;8.10;99.90;;;;;;5046323;28;20034;-79
2022/10/07 05:28:10;;;;;;;17.58;4.53;;;8.10;99.90;;;;;;5030369;28;20017;-78
2022/10/07 05:30:36;;;;;;;13.98;3.70;;;8.00;99.90;;;;;;5029850;28;20042;-80
2022/10/07 05:33:02;;;;;;;16.13;4.22;;;8.00;99.90;;;;;;5032353;28;20030;-77
2022/10/07 05:35:28;;;;;;;13.13;4.10;;;8.00;99.90;;;;;;5036190;28;20041;-77
2022/10/07 05:37:54;;;;;;;16.48;3.83;;;8.00;99.90;;;;;;5034711;28;20020;-78
2022/10/07 05:40:20;;;;;;;11.95;4.25;;;8.00;99.90;;;;;;5032413;28;20022;-77
2022/10/07 05:42:46;;;;;;;15.05;4.43;;;8.00;99.90;;;;;;5035211;28;20381;-77
2022/10/07 05:45:11;;;;;;;15.18;4.50;;;8.10;99.90;;;;;;5041135;28;20025;-78
2022/10/07 05:47:37;;;;;;;12.02;3.70;;;8.00;99.90;;;;;;5034641;28;20053;-76
2022/10/07 05:50:05;;;;;;;13.95;4.07;;;8.00;99.90;;;;;;5032836;28;20018;-77
2022/10/07 05:52:34;;;;;;;19.92;4.82;;;8.00;99.90;;;;;;5033816;28;20105;-77
2022/10/07 05:55:00;;;;;;;22.08;4.55;;;8.00;99.90;;;;;;5033272;28;20398;-77
2022/10/07 05:57:25;;;;;;;12.48;4.47;;;7.90;99.90;;;;;;5033097;28;20025;-78
2022/10/07 05:59:51;;;;;;;19.33;5.05;;;8.00;99.90;;;;;;5035669;28;20030;-77
2022/10/07 06:02:18;;;;;;;12.82;4.28;;;8.00;99.90;;;;;;5049216;28;20488;-75
2022/10/07 06:04:46;;;;;;;18.10;4.30;;;8.00;99.90;;;;;;5050106;28;20029;-78
2022/10/07 06:07:12;;;;;;;20.67;4.70;;;7.90;99.90;;;;;;5034701;28;20014;-77
2022/10/07 06:15:08;;;;;;;15.55;4.43;;;8.00;99.90;;;;;;5034415;28;20101;-75
2022/10/07 06:17:35;;;;;;;14.07;4.75;;;8.00;99.90;;;;;;5040180;28;20026;-76
2022/10/07 06:20:00;;;;;;;19.58;4.82;;;8.00;99.90;;;;;;5033246;28;20030;-76
2022/10/07 06:22:26;;;;;;;11.23;4.60;;;8.00;99.90;;;;;;5034815;28;20049;-78
2022/10/07 06:24:56;;;;;;;16.35;4.72;;;8.10;99.90;;;;;;5036300;28;20036;-76
2022/10/07 06:27:23;;;;;;;16.20;5.05;;;8.20;99.90;;;;;;5034291;28;20117;-78
2022/10/07 06:29:48;;;;;;;16.67;4.32;;;8.20;99.90;;;;;;5039525;28;20081;-77
2022/10/07 06:32:14;;;;;;;11.18;4.63;;;8.30;99.90;;;;;;5032740;28;20056;-78
2022/10/07 06:34:39;;;;;;;25.02;5.43;;;8.30;99.90;;;;;;5032488;28;21355;-78
2022/10/07 06:37:05;;;;;;;11.35;4.40;;;8.30;99.90;;;;;;5034097;28;20021;-78
2022/10/07 06:39:31;;;;;;;16.85;4.80;;;8.40;99.90;;;;;;5035261;28;20025;-76
2022/10/07 06:41:56;;;;;;;18.23;5.55;;;8.40;99.90;;;;;;5033132;28;20026;-79
2022/10/07 06:44:22;;;;;;;11.43;4.88;;;8.40;99.90;;;;;;5031470;28;20022;-77
2022/10/07 06:46:48;;;;;;;13.02;4.63;;;8.50;99.90;;;;;;5032850;28;20034;-77
2022/10/07 06:49:13;;;;;;;14.25;4.75;;;8.60;99.90;;;;;;5031642;28;20482;-78
2022/10/07 06:51:39;;;;;;;18.48;4.65;;;8.70;99.90;;;;;;5034546;28;20044;-77
2022/10/07 06:54:05;;;;;;;9.23;4.35;;;8.70;99.90;;;;;;5034257;28;20041;-76
2022/10/07 06:56:30;;;;;;;18.15;5.28;;;8.80;99.90;;;;;;5032308;28;20038;-77
2022/10/07 06:58:56;;;;;;;20.65;5.47;;;8.80;99.90;;;;;;5033986;28;20022;-76
2022/10/07 07:01:21;;;;;;;19.90;5.28;;;8.80;99.90;;;;;;5033487;28;20466;-75
2022/10/07 07:03:47;;;;;;;16.65;4.70;;;8.80;99.90;;;;;;5033517;28;20690;-75
2022/10/07 07:06:13;;;;;;;15.57;4.47;;;8.80;99.90;;;;;;5035326;28;20406;-77
2022/10/07 07:08:40;;;;;;;13.23;4.57;;;8.90;99.90;;;;;;5047439;28;20026;-76
2022/10/07 07:13:55;;;;;;;16.60;4.63;;;9.00;99.90;;;;;;5033201;28;20049;-77
2022/10/07 07:16:23;;;;;;;19.38;5.15;;;9.20;99.90;;;;;;5033456;28;20026;-77
2022/10/07 07:18:53;;;;;;;25.15;5.15;;;9.30;99.90;;;;;;5033616;28;20033;-75
2022/10/07 07:21:19;;;;;;;10.50;4.30;;;9.40;99.90;;;;;;5035795;28;20025;-76
2022/10/07 07:23:44;;;;;;;15.88;4.88;;;9.50;99.90;;;;;;5033637;28;20030;-76
2022/10/07 07:26:11;;;;;;;19.83;5.05;;;9.60;99.90;;;;;;5033690;28;20030;-71
2022/10/07 07:28:38;;;;;;;12.23;5.10;;;9.80;99.90;;;;;;5032843;28;20030;-74
2022/10/07 07:31:08;;;;;;;12.18;5.10;;;9.90;99.90;;;;;;5033203;28;20037;-77
2022/10/07 07:33:37;;;;;;;27.27;5.32;;;10.00;99.90;;;;;;5034358;28;20085;-76
2022/10/07 07:36:17;;;;;;;15.90;5.18;;;10.20;99.90;;;;;;5039867;28;20073;-77
2022/10/07 07:39:05;;;;;;;20.50;4.57;;;10.40;99.90;;;;;;5034795;28;20056;-75
2022/10/07 07:41:34;;;;;;;19.25;4.65;;;10.60;99.90;;;;;;5039723;28;20053;-78
2022/10/07 07:44:03;;;;;;;16.30;4.32;;;10.80;99.90;;;;;;5031372;28;20042;-79
2022/10/07 07:46:38;;;;;;;17.25;4.88;;;11.10;99.90;;;;;;5032970;28;20053;-72
2022/10/07 07:49:05;;;;;;;14.68;4.68;;;11.30;99.90;;;;;;5032377;28;20073;-77
2022/10/07 07:51:32;;;;;;;19.33;4.05;;;11.60;99.90;;;;;;5032631;28;20037;-75
2022/10/07 07:53:58;;;;;;;10.32;3.95;;;11.80;99.90;;;;;;5032585;28;20020;-77
2022/10/07 07:56:25;;;;;;;18.73;4.28;;;12.10;99.90;;;;;;5031400;28;20029;-77
2022/10/07 07:58:50;;;;;;;17.58;4.32;;;12.30;99.90;;;;;;5033585;28;20112;-73
2022/10/07 08:01:17;;;;;;;16.77;4.72;;;12.50;99.90;;;;;;5034224;28;20022;-74
2022/10/07 08:03:45;;;;;;;17.55;4.07;;;12.60;99.90;;;;;;5032523;28;20029;-74
2022/10/07 08:06:11;;;;;;;21.33;3.80;;;12.80;99.90;;;;;;5033254;28;20026;-76
2022/10/07 08:08:37;;;;;;;10.63;3.30;;;12.90;99.90;;;;;;5033643;28;20045;-75
2022/10/07 08:11:12;;;;;;;9.68;3.30;;;12.90;99.90;;;;;;5030650;28;20058;-76
2022/10/07 08:13:40;;;;;;;17.35;4.22;;;12.90;99.90;;;;;;5032385;28;20025;-74
2022/10/07 08:16:12;;;;;;;19.38;4.38;;;12.90;99.90;;;;;;5032405;28;20084;-71
2022/10/07 08:18:43;;;;;;;25.08;4.35;;;12.90;99.90;;;;;;5031850;28;20409;-75
2022/10/07 08:21:12;;;;;;;10.73;3.28;;;12.80;99.90;;;;;;5032063;28;20025;-74
2022/10/07 08:23:38;;;;;;;6.18;3.47;;;12.80;99.90;;;;;;5035484;28;20033;-77
2022/10/07 08:26:06;;;;;;;10.32;4.63;;;12.80;99.90;;;;;;5031663;28;20021;-73
2022/10/07 08:28:32;;;;;;;21.10;4.05;;;12.90;99.90;;;;;;5033015;28;20040;-72
2022/10/07 08:31:11;;;;;;;12.98;4.35;;;12.80;99.90;;;;;;5033434;28;20025;-73
2022/10/07 08:33:40;;;;;;;14.50;4.53;;;12.90;99.90;;;;;;5032301;28;20030;-75
2022/10/07 08:36:07;;;;;;;12.98;4.05;;;12.80;99.90;;;;;;5030439;28;20041;-73
2022/10/07 08:38:35;;;;;;;10.27;3.97;;;12.90;99.90;;;;;;5031534;28;20042;-75
2022/10/07 08:41:33;;;;;;;14.23;3.95;;;12.90;99.90;;;;;;5032246;28;20028;-72
2022/10/07 08:44:38;;;;;;;16.67;4.30;;;13.00;99.90;;;;;;5000137;28;20050;-76
2022/10/07 08:47:21;;;;;;;19.20;4.40;;;13.10;99.90;;;;;;5027169;28;20048;-76
2022/10/07 08:49:52;;;;;;;14.70;3.40;;;13.10;99.90;;;;;;5029943;28;20037;-75
2022/10/07 08:52:50;;;;;;;22.55;4.18;;;13.20;99.90;;;;;;5028067;28;20018;-75
2022/10/07 08:55:45;;;;;;;26.73;4.28;;;13.30;99.90;;;;;;5017456;28;20140;-74
2022/10/07 08:58:14;;;;;;;24.25;3.88;;;13.40;99.90;;;;;;5039100;28;20037;-76
2022/10/07 09:01:02;;;;;;;21.55;3.40;;;13.40;99.90;;;;;;5032189;28;20033;-77
2022/10/07 09:03:37;;;;;;;11.43;3.38;;;13.50;99.90;;;;;;5037617;28;20021;-75
2022/10/07 09:06:12;;;;;;;16.88;3.90;;;13.60;99.90;;;;;;5030635;28;20033;-69
2022/10/07 09:08:45;;;;;;;9.93;3.08;;;13.70;99.90;;;;;;5031148;28;20473;-75
2022/10/07 09:11:19;;;;;;;14.27;3.67;;;13.80;99.90;;;;;;5046860;28;20049;-75
2022/10/07 09:14:12;;;;;;;12.93;4.28;;;13.90;99.90;;;;;;5020856;28;20018;-76
2022/10/07 09:16:42;;;;;;;12.63;4.18;;;13.90;99.90;;;;;;5032623;28;20033;-80
2022/10/07 09:19:18;;;;;;;17.35;4.15;;;14.00;99.90;;;;;;5031716;28;20111;-74
2022/10/07 09:21:49;;;;;;;11.50;4.22;;;14.10;99.90;;;;;;5032722;28;20026;-78
2022/10/07 09:24:17;;;;;;;16.58;3.45;;;14.20;99.90;;;;;;5030673;28;20030;-75
2022/10/07 09:26:43;;;;;;;13.05;3.47;;;14.30;99.90;;;;;;5030055;28;20042;-75
2022/10/07 09:29:09;;;;;;;21.88;3.55;;;14.30;99.90;;;;;;5032746;28;20758;-78
2022/10/07 09:31:35;;;;;;;15.48;3.90;;;14.40;99.90;;;;;;5032688;28;20026;-78
2022/10/07 09:34:01;;;;;;;10.05;3.22;;;14.50;99.90;;;;;;5031770;28;20030;-75
2022/10/07 09:36:27;;;;;;;14.07;2.92;;;14.60;99.90;;;;;;5026553;28;20053;-72
2022/10/07 09:38:52;;;;;;;14.82;2.97;;;14.70;99.90;;;;;;5030186;28;20105;-73
2022/10/07 09:41:34;;;;;;;12.25;3.65;;;14.70;99.90;;;;;;5033285;28;20053;-70
2022/10/07 09:44:14;;;;;;;14.18;3.55;;;14.80;99.90;;;;;;5031719;28;20037;-74
2022/10/07 09:46:45;;;;;;;18.42;3.08;;;14.80;99.90;;;;;;5031404;28;20036;-74
2022/10/07 09:49:26;;;;;;;16.50;2.85;;;14.80;99.90;;;;;;5044560;28;20053;-74
2022/10/07 09:52:26;;;;;;;13.55;2.72;;;14.80;99.90;;;;;;5041407;28;20040;-75
2022/10/07 09:54:53;;;;;;;14.13;2.55;;;14.90;99.90;;;;;;5028481;28;20069;-75
2022/10/07 09:57:22;;;;;;;17.33;3.25;;;15.00;99.90;;;;;;5030484;28;20033;-75
2022/10/07 09:59:47;;;;;;;18.27;3.10;;;15.00;99.90;;;;;;5030034;28;20060;-73
2022/10/07 10:02:13;;;;;;;15.25;2.85;;;15.10;99.90;;;;;;5031754;28;20029;-76
2022/10/07 10:04:46;;;;;;;13.23;3.08;;;15.10;99.90;;;;;;5031184;28;20028;-69
2022/10/07 10:07:25;;;;;;;9.90;2.72;;;15.20;99.90;;;;;;5031227;28;20025;-76
2022/10/07 10:09:54;;;;;;;15.73;2.53;;;15.20;99.90;;;;;;5030009;28;20037;-74
2022/10/07 10:12:22;;;;;;;14.40;3.17;;;15.30;99.90;;;;;;5030088;28;20034;-74
2022/10/07 10:14:53;;;;;;;10.50;2.85;;;15.40;99.90;;;;;;5030773;28;20068;-77
2022/10/07 10:17:34;;;;;;;17.63;3.42;;;15.40;99.90;;;;;;5031943;28;20033;-73
2022/10/07 10:20:25;;;;;;;17.63;3.22;;;15.50;99.90;;;;;;5035848;28;20046;-74
2022/10/07 10:22:51;;;;;;;13.20;3.17;;;15.60;99.90;;;;;;5035081;28;20029;-72
2022/10/07 10:28:52;;;;;;;13.77;2.88;;;15.70;99.90;;;;;;5034703;28;20067;-76
2022/10/07 10:31:29;;;;;;;10.80;2.55;;;15.80;99.90;;;;;;5034648;28;20538;-75
2022/10/07 10:34:03;;;;;;;11.85;2.95;;;15.90;99.90;;;;;;5034264;28;20560;-77
2022/10/07 10:36:31;;;;;;;8.00;2.00;;;16.00;99.90;;;;;;5033674;28;20041;-76
2022/10/07 10:39:36;;;;;;;9.80;2.17;;;16.10;99.90;;;;;;5017634;28;20543;-73
2022/10/07 10:42:07;;;;;;;10.65;2.70;;;16.20;99.90;;;;;;5039689;28;20060;-71
2022/10/07 10:44:51;;;;;;;8.15;2.28;;;16.30;99.90;;;;;;5034470;28;20036;-74
2022/10/07 10:47:53;;;;;;;16.90;2.80;;;16.30;99.90;;;;;;5033806;28;20052;-74
2022/10/07 10:50:26;;;;;;;12.73;2.17;;;16.20;99.90;;;;;;5016957;28;20057;-76
2022/10/07 10:53:00;;;;;;;18.47;2.97;;;16.30;99.90;;;;;;5033615;28;20018;-77
2022/10/07 10:55:26;;;;;;;21.02;2.80;;;16.40;99.90;;;;;;5034442;28;20072;-74
2022/10/07 10:58:01;;;;;;;10.43;2.83;;;16.60;99.90;;;;;;5049327;28;20047;-74
2022/10/07 11:00:57;;;;;;;10.38;1.98;;;16.70;99.90;;;;;;5033580;28;20022;-77
2022/10/07 11:03:40;;;;;;;8.73;2.60;;;16.90;99.90;;;;;;5008061;28;20057;-76
2022/10/07 11:06:10;;;;;;;18.30;2.65;;;17.00;99.90;;;;;;5033440;28;20021;-74
2022/10/07 11:08:36;;;;;;;18.27;2.13;;;17.00;99.90;;;;;;5033187;28;20026;-75
2022/10/07 11:11:13;;;;;;;11.68;2.00;;;17.00;99.90;;;;;;5034567;28;20030;-72
2022/10/07 11:13:53;;;;;;;19.92;2.40;;;17.10;99.90;;;;;;5034427;28;20095;-75
2022/10/07 11:16:29;;;;;;;10.23;1.90;;;17.10;99.90;;;;;;5034518;28;20061;-75
2022/10/07 11:19:27;;;;;;;23.58;3.42;;;17.20;99.90;;;;;;5037196;28;20021;-74
2022/10/07 11:21:56;;;;;;;5.90;1.83;;;17.20;99.90;;;;;;5033344;28;20033;-74
2022/10/07 11:24:39;;;;;;;15.20;2.85;;;17.30;99.90;;;;;;5033626;28;20034;-73
2022/10/07 11:27:39;;;;;;;14.77;2.67;;;17.40;99.90;;;;;;5034406;28;20021;-77
2022/10/07 11:30:22;;;;;;;11.63;2.25;;;17.50;99.90;;;;;;5010230;28;20292;-72
2022/10/07 11:32:59;;;;;;;21.45;2.38;;;17.60;99.90;;;;;;5033096;28;20029;-74
2022/10/07 11:35:31;;;;;;;9.82;2.55;;;17.70;99.90;;;;;;5032822;28;20038;-76
2022/10/07 11:38:09;;;;;;;8.70;1.98;;;17.80;99.90;;;;;;5031844;28;20037;-75
2022/10/07 11:41:01;;;;;;;6.97;2.30;;;17.90;99.90;;;;;;5033402;28;20040;-75
2022/10/07 11:43:39;;;;;;;9.45;2.10;;;17.90;99.90;;;;;;5020238;28;20041;-76
2022/10/07 11:46:18;;;;;;;7.80;2.20;;;18.00;99.90;;;;;;5033805;28;20026;-73
2022/10/07 11:48:54;;;;;;;7.75;1.98;;;18.10;99.90;;;;;;5031094;28;20049;-73
2022/10/07 11:51:52;;;;;;;10.80;2.15;;;18.10;99.90;;;;;;5032271;28;20021;-75
2022/10/07 11:54:22;;;;;;;16.80;2.45;;;18.10;99.90;;;;;;5033335;28;20480;-76
2022/10/07 11:56:51;;;;;;;11.00;2.20;;;18.20;99.90;;;;;;5032882;28;20026;-76
2022/10/07 11:59:42;;;;;;;12.23;2.50;;;18.30;99.90;;;;;;5032755;28;20079;-73
2022/10/07 12:02:27;;;;;;;8.80;1.98;;;18.30;99.90;;;;;;5032391;28;20025;-75
2022/10/07 12:04:59;;;;;;;10.57;2.95;;;18.40;99.90;;;;;;5048377;28;20081;-77
2022/10/07 12:07:33;;;;;;;13.60;2.28;;;18.60;99.90;;;;;;5032940;28;20098;-76
2022/10/07 12:10:02;;;;;;;8.68;2.30;;;18.90;99.90;;;;;;5038610;28;20029;-74
2022/10/07 12:12:45;;;;;;;21.77;2.78;;;19.30;99.90;;;;;;5032035;28;20056;-79
2022/10/07 12:15:33;;;;;;;10.10;2.15;;;19.60;99.90;;;;;;5031750;28;20041;-72
2022/10/07 12:18:05;;;;;;;8.90;2.22;;;19.70;99.90;;;;;;5038082;28;20033;-75
2022/10/07 12:20:43;;;;;;;9.85;2.08;;;19.80;99.90;;;;;;5032329;28;20051;-78
2022/10/07 12:23:21;;;;;;;15.15;2.42;;;19.90;99.90;;;;;;5032024;28;20032;-75
2022/10/07 12:25:50;;;;;;;8.35;2.20;;;20.00;99.90;;;;;;5032280;28;20030;-73
2022/10/07 12:28:33;;;;;;;12.20;2.25;;;20.00;99.90;;;;;;5032420;28;20029;-75
2022/10/07 12:31:00;;;;;;;8.60;2.22;;;19.90;99.90;;;;;;5032327;28;20952;-75
2022/10/07 12:33:45;;;;;;;9.73;1.88;;;19.80;99.90;;;;;;5036347;28;20025;-75
2022/10/07 12:36:22;;;;;;;12.80;2.05;;;19.80;99.90;;;;;;5030931;28;20462;-76
2022/10/07 12:39:00;;;;;;;12.05;2.47;;;19.80;99.90;;;;;;5029459;28;20084;-76
2022/10/07 12:41:27;;;;;;;5.72;2.03;;;19.80;99.90;;;;;;5029253;28;20029;-75
2022/10/07 12:44:16;;;;;;;7.72;2.08;;;20.00;99.90;;;;;;5046586;28;20496;-74
2022/10/07 12:46:50;;;;;;;9.73;2.17;;;20.20;99.90;;;;;;5032152;28;20085;-76
2022/10/07 12:49:39;;;;;;;8.63;2.10;;;20.40;99.90;;;;;;5032429;28;20049;-73
2022/10/07 12:52:42;;;;;;;15.05;2.35;;;20.60;99.90;;;;;;5032426;28;20037;-72
2022/10/07 12:55:13;;;;;;;10.90;2.38;;;20.20;99.90;;;;;;5011661;28;20069;-73
2022/10/07 12:57:46;;;;;;;10.85;2.22;;;19.90;99.90;;;;;;5033525;28;20064;-74
2022/10/07 13:00:21;;;;;;;10.77;2.13;;;19.80;99.90;;;;;;5038400;28;20113;-72
2022/10/07 13:03:29;;;;;;;5.60;2.25;;;19.50;99.90;;;;;;5030553;28;20049;-74
2022/10/07 13:06:06;;;;;;;13.45;2.58;;;19.20;99.90;;;;;;4979008;28;20038;-74
2022/10/07 13:08:35;;;;;;;9.43;2.22;;;19.40;99.90;;;;;;4978995;28;20038;-72
2022/10/07 13:11:25;;;;;;;7.25;1.88;;;19.60;99.90;;;;;;5006631;28;20046;-76
2022/10/07 13:14:09;;;;;;;8.00;2.45;;;19.60;99.90;;;;;;5033554;28;20083;-72
2022/10/07 13:16:47;;;;;;;13.98;2.50;;;19.50;99.90;;;;;;5031423;28;20034;-74
2022/10/07 13:19:31;;;;;;;8.05;2.55;;;19.60;99.90;;;;;;5031700;28;20030;-72